Time;durP1;ratioP1;P1;durP2;ratioP2;P2;SDS_P1;SDS_P2;PMS_P1;PMS_P2;Temp;Humidity;BMP_temperature;BMP_pressure;BME280_temperature;BME280_humidity;BME280_pressure;Samples;Min_cycle;Max_cycle;Signal;HPM_P1;HPM_P2
2022/09/08 00:00:52;;;;;;;27.70;25.10;;;17.70;99.90;;;;;;5095819;27;20047;-54
2022/09/08 00:03:21;;;;;;;33.53;29.92;;;17.70;99.90;;;;;;5103012;28;20047;-53
2022/09/08 00:05:53;;;;;;;27.75;24.33;;;17.70;99.90;;;;;;5101200;28;20039;-57
2022/09/08 00:08:20;;;;;;;26.52;23.88;;;17.60;99.90;;;;;;5099212;28;20032;-54
2022/09/08 00:10:48;;;;;;;29.83;26.88;;;17.50;99.90;;;;;;5105597;28;20515;-54
2022/09/08 00:13:13;;;;;;;32.60;28.88;;;17.60;99.90;;;;;;5093267;28;20084;-55
2022/09/08 00:15:39;;;;;;;30.40;26.40;;;17.60;99.90;;;;;;5093762;28;20032;-56
2022/09/08 00:18:06;;;;;;;24.05;21.67;;;17.60;99.90;;;;;;5088185;28;20044;-54
2022/09/08 00:20:31;;;;;;;26.75;23.90;;;17.50;99.90;;;;;;5096024;28;20503;-54
2022/09/08 00:22:57;;;;;;;27.48;24.45;;;17.50;99.90;;;;;;5096690;28;20039;-57
2022/09/08 00:25:23;;;;;;;;;;;17.40;99.90;;;;;;5083755;28;20312;-55
2022/09/08 00:27:48;;;;;;;28.17;25.67;;;17.40;99.90;;;;;;5087779;28;19916;-55
2022/09/08 00:30:14;;;;;;;30.83;27.60;;;17.40;99.90;;;;;;5109750;28;20496;-55
2022/09/08 00:32:39;;;;;;;32.38;28.98;;;17.40;99.90;;;;;;5110444;28;20039;-57
2022/09/08 00:35:07;;;;;;;36.97;33.13;;;17.40;99.90;;;;;;5097118;28;20193;-54
2022/09/08 00:37:33;;;;;;;34.28;29.88;;;17.40;99.90;;;;;;5093567;28;20130;-56
2022/09/08 00:39:58;;;;;;;32.78;29.20;;;17.30;99.90;;;;;;5077886;28;20111;-54
2022/09/08 00:42:24;;;;;;;30.83;27.77;;;17.20;99.90;;;;;;5104665;28;20028;-54
2022/09/08 00:44:49;;;;;;;30.15;27.13;;;17.20;99.90;;;;;;5093532;28;20035;-54
2022/09/08 00:47:20;;;;;;;30.85;26.10;;;17.20;99.90;;;;;;5092858;28;20036;-56
2022/09/08 00:49:50;;;;;;;29.95;27.15;;;17.30;99.90;;;;;;5094234;28;20531;-54
2022/09/08 00:52:16;;;;;;;32.40;29.05;;;17.30;99.90;;;;;;5096062;28;20082;-54
2022/09/08 00:54:43;;;;;;;35.28;31.65;;;17.30;99.90;;;;;;5090409;28;20068;-57
2022/09/08 00:57:09;;;;;;;32.50;29.30;;;17.30;99.90;;;;;;5080392;28;20048;-56
2022/09/08 00:59:36;;;;;;;30.52;27.50;;;17.30;99.90;;;;;;5096467;28;20044;-55
2022/09/08 01:02:25;;;;;;;33.58;30.42;;;17.30;99.90;;;;;;5103504;28;20489;-56
2022/09/08 01:04:58;;;;;;;35.55;31.70;;;17.30;99.90;;;;;;5092611;28;20070;-58
2022/09/08 01:13:25;;;;;;;34.70;29.70;;;17.40;99.90;;;;;;5071710;28;20044;-56
2022/09/08 01:15:51;;;;;;;32.00;29.02;;;17.40;99.90;;;;;;5090963;28;20068;-54
2022/09/08 01:18:17;;;;;;;34.08;30.65;;;17.40;99.90;;;;;;5063789;28;20113;-54
2022/09/08 01:21:03;;;;;;;34.75;30.75;;;17.30;99.90;;;;;;5097085;28;20106;-57
2022/09/08 01:23:53;;;;;;;37.42;33.85;;;17.40;99.90;;;;;;5100247;28;20110;-55
2022/09/08 01:26:29;;;;;;;37.88;33.95;;;17.40;99.90;;;;;;5071111;28;20120;-54
2022/09/08 01:28:58;;;;;;;38.38;34.53;;;17.40;99.90;;;;;;5070854;28;20037;-57
2022/09/08 01:31:24;;;;;;;38.70;34.63;;;17.40;99.90;;;;;;5071236;28;20119;-53
2022/09/08 01:33:50;;;;;;;39.65;35.75;;;17.40;99.90;;;;;;5070835;28;20559;-55
2022/09/08 01:36:17;;;;;;;40.05;36.10;;;17.50;99.90;;;;;;5079209;28;20072;-55
2022/09/08 01:38:44;;;;;;;37.25;33.70;;;17.50;99.90;;;;;;5089604;28;20051;-57
2022/09/08 01:41:10;;;;;;;37.90;33.97;;;17.50;99.90;;;;;;5090548;28;20047;-55
2022/09/08 01:43:36;;;;;;;38.20;34.05;;;17.50;99.90;;;;;;5090289;28;20424;-54
2022/09/08 01:46:01;;;;;;;41.33;37.35;;;17.60;99.90;;;;;;5073807;28;20052;-57
2022/09/08 01:48:27;;;;;;;39.75;35.88;;;17.60;99.90;;;;;;5079690;28;20129;-56
2022/09/08 01:50:58;;;;;;;42.47;38.22;;;17.60;99.90;;;;;;5091609;28;20047;-54
2022/09/08 01:53:24;;;;;;;40.15;35.90;;;17.50;99.90;;;;;;5090548;28;20136;-54
2022/09/08 01:55:49;;;;;;;38.03;34.47;;;17.60;99.90;;;;;;5097011;28;20546;-54
2022/09/08 01:58:15;;;;;;;40.13;35.90;;;17.50;99.90;;;;;;5075199;28;20072;-56
2022/09/08 02:00:41;;;;;;;38.55;34.83;;;17.50;99.90;;;;;;5083786;28;20043;-55
2022/09/08 02:03:08;;;;;;;41.08;36.95;;;17.60;99.90;;;;;;5099354;28;20043;-55
2022/09/08 02:05:40;;;;;;;40.85;36.63;;;17.60;99.90;;;;;;5094200;28;20044;-55
2022/09/08 02:08:06;;;;;;;39.60;35.80;;;17.60;99.90;;;;;;5091847;28;20554;-55
2022/09/08 02:10:32;;;;;;;39.67;35.63;;;17.50;99.90;;;;;;5076735;28;20041;-54
2022/09/08 02:12:58;;;;;;;43.53;37.40;;;17.50;99.90;;;;;;5093126;28;20054;-58
2022/09/08 02:15:24;;;;;;;41.47;37.35;;;17.50;99.90;;;;;;5087933;28;20028;-55
2022/09/08 02:17:50;;;;;;;42.88;37.72;;;17.50;99.90;;;;;;5104775;28;20032;-56
2022/09/08 02:20:15;;;;;;;43.75;39.45;;;17.50;99.90;;;;;;5101855;27;20058;-56
2022/09/08 02:22:42;;;;;;;41.55;37.28;;;17.50;99.90;;;;;;5097183;28;20036;-58
2022/09/08 02:25:07;;;;;;;40.22;35.80;;;17.50;99.90;;;;;;5105273;28;20036;-54
2022/09/08 02:27:33;;;;;;;40.92;36.95;;;17.50;99.90;;;;;;5092289;28;20047;-55
2022/09/08 02:29:59;;;;;;;40.22;36.30;;;17.50;99.90;;;;;;5091894;28;20040;-55
2022/09/08 02:32:24;;;;;;;41.22;36.85;;;17.50;99.90;;;;;;5104901;28;20548;-55
2022/09/08 02:34:50;;;;;;;41.25;37.00;;;17.50;99.90;;;;;;5081551;28;20477;-54
2022/09/08 02:37:16;;;;;;;41.63;37.22;;;17.50;99.90;;;;;;5073352;28;20093;-55
2022/09/08 02:39:41;;;;;;;41.30;37.08;;;17.60;99.90;;;;;;5081662;28;20110;-55
2022/09/08 02:42:08;;;;;;;39.17;35.20;;;17.60;99.90;;;;;;5099770;28;20050;-56
2022/09/08 02:44:34;;;;;;;42.75;38.40;;;17.60;99.90;;;;;;5092230;28;20032;-53
2022/09/08 02:47:00;;;;;;;40.88;36.42;;;17.60;99.90;;;;;;5108921;28;20484;-55
2022/09/08 02:49:26;;;;;;;42.85;38.55;;;17.60;99.90;;;;;;5091718;28;20416;-54
2022/09/08 02:51:51;;;;;;;44.58;40.05;;;17.60;99.90;;;;;;5076870;28;20043;-54
2022/09/08 02:54:17;;;;;;;43.90;39.17;;;17.60;99.90;;;;;;5075399;28;20032;-56
2022/09/08 02:56:42;;;;;;;41.97;37.83;;;17.60;99.90;;;;;;5079722;28;20823;-54
2022/09/08 02:59:09;;;;;;;39.65;35.17;;;17.60;99.90;;;;;;5078303;28;20067;-54
2022/09/08 03:01:35;;;;;;;41.92;37.80;;;17.60;99.90;;;;;;5091671;28;20081;-55
2022/09/08 03:04:01;;;;;;;40.92;36.55;;;17.60;99.90;;;;;;5104262;28;20048;-56
2022/09/08 03:06:26;;;;;;;41.75;37.53;;;17.60;99.90;;;;;;5099791;28;20024;-56
2022/09/08 03:08:52;;;;;;;39.38;35.50;;;17.70;99.90;;;;;;5094750;28;20086;-54
2022/09/08 03:11:18;;;;;;;39.78;35.67;;;17.70;99.90;;;;;;5108133;28;20055;-54
2022/09/08 03:13:43;;;;;;;41.13;36.83;;;17.70;99.90;;;;;;5106329;28;20513;-56
2022/09/08 03:16:09;;;;;;;41.15;36.90;;;17.70;99.90;;;;;;5113748;28;20059;-56
2022/09/08 03:18:34;;;;;;;41.58;37.33;;;17.70;99.90;;;;;;5083266;28;20463;-55
2022/09/08 03:21:09;;;;;;;40.15;36.08;;;17.70;99.90;;;;;;5096957;28;20044;-55
2022/09/08 03:23:35;;;;;;;41.42;37.10;;;17.70;99.90;;;;;;5092772;28;20604;-55
2022/09/08 03:26:03;;;;;;;40.58;36.45;;;17.70;99.90;;;;;;5091064;28;20037;-54
2022/09/08 03:28:29;;;;;;;39.88;35.80;;;17.70;99.90;;;;;;5073840;28;20036;-55
2022/09/08 03:30:54;;;;;;;42.05;37.40;;;17.70;99.90;;;;;;5073451;28;20090;-55
2022/09/08 03:33:20;;;;;;;40.30;36.33;;;17.70;99.90;;;;;;5074623;28;20127;-57
2022/09/08 03:35:47;;;;;;;41.10;36.75;;;17.70;99.90;;;;;;5073101;28;20067;-54
2022/09/08 03:38:13;;;;;;;41.47;37.22;;;17.70;99.90;;;;;;5072972;28;20044;-55
2022/09/08 03:40:41;;;;;;;42.40;37.50;;;17.70;99.90;;;;;;5072892;28;20055;-55
2022/09/08 03:43:08;;;;;;;45.25;38.97;;;17.70;99.90;;;;;;5074044;28;20040;-54
2022/09/08 03:45:33;;;;;;;;;;;17.60;99.90;;;;;;5072385;28;20037;-55
2022/09/08 03:47:59;;;;;;;40.95;36.85;;;17.60;99.90;;;;;;5073434;28;19977;-54
2022/09/08 03:50:24;;;;;;;44.35;39.65;;;17.60;99.90;;;;;;5073116;28;20297;-55
2022/09/08 03:52:50;;;;;;;43.80;39.08;;;17.60;99.90;;;;;;5072509;28;20596;-57
2022/09/08 03:55:16;;;;;;;44.15;39.28;;;17.50;99.90;;;;;;5086482;28;20040;-53
2022/09/08 03:57:41;;;;;;;44.20;39.75;;;17.50;99.90;;;;;;5102967;28;20050;-54
2022/09/08 04:00:09;;;;;;;46.67;42.00;;;17.50;99.90;;;;;;5100699;28;20036;-56
2022/09/08 04:02:35;;;;;;;47.63;40.97;;;17.50;99.90;;;;;;5093203;28;20303;-55
2022/09/08 04:05:01;;;;;;;48.72;43.47;;;17.40;99.90;;;;;;5091695;28;20044;-55
2022/09/08 04:07:29;;;;;;;44.60;40.05;;;17.40;99.90;;;;;;5109967;28;20040;-56
2022/09/08 04:09:56;;;;;;;43.72;39.17;;;17.40;99.90;;;;;;5098994;28;20038;-58
2022/09/08 04:12:23;;;;;;;46.28;40.92;;;17.40;99.90;;;;;;5113607;28;20040;-56
2022/09/08 04:14:49;;;;;;;44.60;39.90;;;17.40;99.90;;;;;;5085787;28;20035;-57
2022/09/08 04:17:17;;;;;;;45.58;40.60;;;17.40;99.90;;;;;;5106743;28;20062;-55
2022/09/08 04:19:42;;;;;;;46.65;41.67;;;17.40;99.90;;;;;;5096161;27;20036;-54
2022/09/08 04:22:08;;;;;;;45.47;40.20;;;17.40;99.90;;;;;;5109423;28;20036;-54
2022/09/08 04:24:34;;;;;;;46.13;41.17;;;17.40;99.90;;;;;;5094494;28;20550;-56
2022/09/08 04:27:00;;;;;;;43.95;39.50;;;17.40;99.90;;;;;;5095466;28;20123;-55
2022/09/08 04:29:26;;;;;;;43.05;38.58;;;17.40;99.90;;;;;;5095224;28;20544;-53
2022/09/08 04:31:52;;;;;;;42.30;37.92;;;17.40;99.90;;;;;;5072382;28;20049;-54
2022/09/08 04:34:17;;;;;;;43.35;39.08;;;17.40;99.90;;;;;;5078541;28;20504;-55
2022/09/08 04:36:44;;;;;;;43.70;38.83;;;17.40;99.90;;;;;;5094854;28;20636;-55
2022/09/08 04:39:10;;;;;;;44.95;40.35;;;17.40;99.90;;;;;;5088107;28;20079;-54
2022/09/08 04:41:36;;;;;;;43.97;39.45;;;17.40;99.90;;;;;;5097995;28;20097;-54
2022/09/08 04:44:03;;;;;;;;;;;17.40;99.90;;;;;;5078172;28;20046;-55
2022/09/08 04:46:30;;;;;;;45.13;40.08;;;17.40;99.90;;;;;;5095878;28;19923;-55
2022/09/08 04:48:56;;;;;;;44.05;39.50;;;17.40;99.90;;;;;;5095397;28;20554;-57
2022/09/08 04:51:23;;;;;;;45.75;41.15;;;17.40;99.90;;;;;;5092055;28;20055;-54
2022/09/08 04:53:51;;;;;;;46.58;41.70;;;17.40;99.90;;;;;;5107405;28;20192;-57
2022/09/08 04:56:18;;;;;;;47.83;42.92;;;17.40;99.90;;;;;;5082800;28;20492;-57
2022/09/08 04:58:45;;;;;;;49.65;44.30;;;17.40;99.90;;;;;;5093023;28;20089;-55
2022/09/08 05:01:28;;;;;;;46.80;42.00;;;17.40;99.90;;;;;;5092049;28;20381;-58
2022/09/08 05:03:56;;;;;;;51.30;43.30;;;17.30;99.90;;;;;;5090095;28;20031;-57
2022/09/08 05:06:22;;;;;;;49.28;43.95;;;17.30;99.90;;;;;;5078491;28;20035;-57
2022/09/08 05:08:51;;;;;;;52.22;46.13;;;17.30;99.90;;;;;;5093137;28;20477;-56
2022/09/08 05:11:18;;;;;;;51.05;45.63;;;17.30;99.90;;;;;;5095447;28;20140;-54
2022/09/08 05:13:44;;;;;;;52.83;45.83;;;17.30;99.90;;;;;;5104399;28;20032;-56
2022/09/08 05:16:12;;;;;;;53.05;47.30;;;17.30;99.90;;;;;;5071622;28;20040;-55
2022/09/08 05:18:38;;;;;;;52.45;46.95;;;17.30;99.90;;;;;;5099099;28;20032;-56
2022/09/08 05:21:06;;;;;;;56.58;49.50;;;17.30;99.90;;;;;;5102550;28;20044;-55
2022/09/08 05:23:33;;;;;;;57.63;48.28;;;17.30;99.90;;;;;;5096765;28;20500;-57
2022/09/08 05:26:01;;;;;;;;;;;17.30;99.90;;;;;;5096399;28;20338;-56
2022/09/08 05:28:29;;;;;;;55.65;46.88;;;17.30;99.90;;;;;;5091237;28;19939;-54
2022/09/08 05:30:55;;;;;;;58.85;51.03;;;17.30;99.90;;;;;;5091532;28;20044;-54
2022/09/08 05:33:21;;;;;;;;;;;17.20;99.90;;;;;;5072286;28;20086;-58
2022/09/08 05:35:46;;;;;;;56.05;48.65;;;17.20;99.90;;;;;;5074214;28;19915;-55
2022/09/08 05:38:12;;;;;;;58.42;51.28;;;17.20;99.90;;;;;;5098094;28;20561;-57
2022/09/08 05:40:38;;;;;;;53.55;47.70;;;17.20;99.90;;;;;;5094594;28;20040;-55
2022/09/08 05:43:04;;;;;;;56.00;47.40;;;17.20;99.90;;;;;;5089722;28;20043;-54
2022/09/08 05:45:30;;;;;;;51.65;45.97;;;17.20;99.90;;;;;;5091688;28;20036;-56
2022/09/08 05:47:56;;;;;;;54.60;43.20;;;17.20;99.90;;;;;;5102956;28;20051;-55
2022/09/08 05:50:21;;;;;;;52.50;45.20;;;17.20;99.90;;;;;;5104409;28;20043;-55
2022/09/08 05:52:47;;;;;;;43.42;25.27;;;17.30;99.90;;;;;;5093516;28;20043;-52
2022/09/08 05:55:13;;;;;;;39.40;32.63;;;17.30;99.90;;;;;;5107838;28;20057;-51
2022/09/08 05:57:39;;;;;;;61.10;45.55;;;17.30;99.90;;;;;;5096281;28;20044;-57
2022/09/08 06:00:07;;;;;;;53.72;44.80;;;17.30;99.90;;;;;;5092271;28;20055;-56
2022/09/08 06:02:33;;;;;;;56.63;47.50;;;17.40;99.90;;;;;;5093584;28;20048;-53
2022/09/08 06:04:59;;;;;;;58.13;49.30;;;17.40;99.90;;;;;;5083182;28;20115;-54
2022/09/08 06:07:25;;;;;;;52.42;46.80;;;17.30;99.90;;;;;;5090831;28;20108;-54
2022/09/08 06:09:51;;;;;;;;;;;17.30;99.90;;;;;;5090352;28;20089;-54
2022/09/08 06:12:16;;;;;;;58.30;46.72;;;17.30;99.90;;;;;;5092658;28;20422;-57
2022/09/08 06:14:42;;;;;;;56.35;49.13;;;17.30;99.90;;;;;;5105238;28;20114;-58
2022/09/08 06:17:08;;;;;;;59.05;49.47;;;17.40;99.90;;;;;;5075789;28;20036;-56
2022/09/08 06:19:33;;;;;;;58.35;47.42;;;17.30;99.90;;;;;;5070575;28;20485;-55
2022/09/08 06:21:59;;;;;;;52.97;47.00;;;17.40;99.90;;;;;;5071318;28;20048;-56
2022/09/08 06:24:24;;;;;;;53.10;45.35;;;17.40;99.90;;;;;;5089379;28;20532;-54
2022/09/08 06:27:10;;;;;;;53.67;46.25;;;17.40;99.90;;;;;;5090162;28;20044;-57
2022/09/08 06:29:43;;;;;;;51.03;45.25;;;17.50;99.90;;;;;;5089744;28;20443;-55
2022/09/08 06:32:29;;;;;;;50.25;44.70;;;17.50;99.90;;;;;;5088584;28;20144;-56
2022/09/08 06:35:11;;;;;;;50.03;43.75;;;17.50;99.90;;;;;;5089816;28;20153;-56
2022/09/08 06:37:48;;;;;;;56.63;44.00;;;17.50;99.90;;;;;;5090350;28;20133;-57
2022/09/08 06:40:21;;;;;;;47.13;41.63;;;17.60;99.90;;;;;;5088188;28;20527;-57
2022/09/08 06:43:07;;;;;;;51.78;44.10;;;17.50;99.90;;;;;;5090083;28;20048;-56
2022/09/08 06:45:40;;;;;;;49.15;43.90;;;17.50;99.90;;;;;;5079289;28;20074;-54
2022/09/08 06:48:29;;;;;;;48.55;41.25;;;17.50;99.90;;;;;;5085575;28;20036;-55
2022/09/08 06:51:05;;;;;;;51.10;42.95;;;17.40;99.90;;;;;;5085398;28;20031;-53
2022/09/08 06:53:39;;;;;;;48.95;39.25;;;17.40;99.90;;;;;;5089868;28;20520;-53
2022/09/08 06:56:10;;;;;;;43.80;37.75;;;17.40;99.90;;;;;;5071714;28;20045;-54
2022/09/08 06:58:38;;;;;;;46.47;37.83;;;17.30;99.90;;;;;;5086384;28;20036;-56
2022/09/08 07:01:09;;;;;;;43.05;37.03;;;17.30;99.90;;;;;;5082273;28;20044;-55
2022/09/08 07:04:10;;;;;;;41.95;35.92;;;17.30;99.90;;;;;;5069556;28;20394;-54
2022/09/08 07:06:50;;;;;;;40.78;34.83;;;17.30;99.90;;;;;;5046816;28;20476;-55
2022/09/08 07:09:43;;;;;;;44.70;35.25;;;17.30;99.90;;;;;;5047269;28;20084;-53
2022/09/08 07:12:35;;;;;;;45.22;35.80;;;17.30;99.90;;;;;;5026889;28;20061;-54
2022/09/08 07:15:19;;;;;;;37.60;33.72;;;17.30;99.90;;;;;;5040850;28;20107;-56
2022/09/08 07:17:50;;;;;;;41.00;33.58;;;17.30;99.90;;;;;;5043738;28;20421;-57
2022/09/08 07:20:16;;;;;;;40.00;32.25;;;17.30;99.90;;;;;;5047455;28;20053;-54
2022/09/08 07:23:00;;;;;;;38.75;34.10;;;17.30;99.90;;;;;;5035427;28;20037;-54
2022/09/08 07:25:32;;;;;;;40.65;34.50;;;17.30;99.90;;;;;;5027000;28;20052;-54
2022/09/08 07:28:11;;;;;;;38.65;34.58;;;17.30;99.90;;;;;;5043150;28;20253;-53
2022/09/08 07:30:38;;;;;;;43.85;35.20;;;17.40;99.90;;;;;;5043352;28;20041;-54
2022/09/08 07:33:34;;;;;;;45.08;37.10;;;17.40;99.90;;;;;;5027506;28;20061;-53
2022/09/08 07:36:19;;;;;;;43.22;37.25;;;17.40;99.90;;;;;;5046716;28;20387;-55
2022/09/08 07:38:49;;;;;;;41.47;36.97;;;17.40;99.90;;;;;;5029156;28;20562;-53
2022/09/08 07:41:20;;;;;;;45.80;38.50;;;17.40;99.90;;;;;;5058490;28;20052;-53
2022/09/08 07:43:49;;;;;;;55.45;40.75;;;17.40;99.90;;;;;;5070338;28;20064;-54
2022/09/08 07:46:30;;;;;;;45.13;40.13;;;17.40;99.90;;;;;;5072981;28;20045;-53
2022/09/08 07:49:11;;;;;;;43.58;38.90;;;17.40;99.90;;;;;;5091440;28;20058;-54
2022/09/08 07:51:45;;;;;;;47.60;40.55;;;17.40;99.90;;;;;;5093233;28;20492;-54
2022/09/08 07:54:20;;;;;;;48.40;43.08;;;17.40;99.90;;;;;;5097453;28;20075;-53
2022/09/08 07:56:58;;;;;;;48.55;42.75;;;17.40;99.90;;;;;;5092410;28;20044;-53
2022/09/08 07:59:29;;;;;;;58.25;47.63;;;17.40;99.90;;;;;;5089262;28;20050;-53
2022/09/08 08:02:20;;;;;;;60.45;46.55;;;17.40;99.90;;;;;;5102463;28;20039;-54
2022/09/08 08:05:16;;;;;;;59.38;49.38;;;17.40;99.90;;;;;;5083825;28;20071;-53
2022/09/08 08:08:12;;;;;;;61.58;48.42;;;17.30;99.90;;;;;;5084696;28;20036;-55
2022/09/08 08:10:43;;;;;;;61.70;49.75;;;17.30;99.90;;;;;;5072899;28;20086;-53
2022/09/08 08:13:24;;;;;;;56.60;46.83;;;17.30;99.90;;;;;;5071953;28;20036;-52
2022/09/08 08:16:11;;;;;;;60.72;47.20;;;17.20;99.90;;;;;;5090144;28;20101;-54
2022/09/08 08:19:07;;;;;;;58.42;45.67;;;17.20;99.90;;;;;;5091153;28;20051;-54
2022/09/08 08:21:46;;;;;;;53.05;43.67;;;17.30;99.90;;;;;;5092290;28;20044;-54
2022/09/08 08:24:19;;;;;;;55.90;45.17;;;17.30;99.90;;;;;;5096884;28;20031;-55
2022/09/08 08:26:59;;;;;;;47.95;40.40;;;17.30;99.90;;;;;;5101657;28;20046;-55
2022/09/08 08:29:33;;;;;;;40.35;34.20;;;17.40;99.90;;;;;;5111143;28;20046;-56
2022/09/08 08:32:10;;;;;;;31.40;25.92;;;17.40;99.90;;;;;;5096516;28;20036;-55
2022/09/08 08:34:55;;;;;;;29.55;25.08;;;17.40;99.90;;;;;;5091329;28;20040;-55
2022/09/08 08:37:29;;;;;;;27.02;24.13;;;17.40;99.90;;;;;;5109426;28;20039;-53
2022/09/08 08:39:56;;;;;;;25.40;22.70;;;17.50;99.90;;;;;;5085933;28;20059;-55
2022/09/08 08:42:59;;;;;;;28.45;22.20;;;17.50;99.90;;;;;;5091353;28;20048;-53
2022/09/08 08:45:55;;;;;;;24.63;19.77;;;17.50;99.90;;;;;;5089256;28;20042;-56
2022/09/08 08:48:51;;;;;;;24.90;18.80;;;17.50;99.90;;;;;;5091109;28;20036;-54
2022/09/08 08:51:49;;;;;;;22.58;17.58;;;17.50;99.90;;;;;;5092428;28;20098;-56
2022/09/08 08:54:32;;;;;;;20.75;17.48;;;17.50;99.90;;;;;;5089091;28;20067;-53
2022/09/08 08:57:06;;;;;;;16.48;14.25;;;17.50;99.90;;;;;;5092687;28;20040;-55
2022/09/08 08:59:52;;;;;;;15.80;13.93;;;17.50;99.90;;;;;;5075091;28;20095;-53
2022/09/08 09:02:31;;;;;;;21.10;13.82;;;17.50;99.90;;;;;;5091530;28;20694;-53
2022/09/08 09:05:24;;;;;;;14.65;13.10;;;17.50;99.90;;;;;;5071360;28;20033;-53
2022/09/08 09:08:10;;;;;;;15.35;13.77;;;17.40;99.90;;;;;;5082230;28;20093;-55
2022/09/08 09:11:06;;;;;;;16.02;13.82;;;17.40;99.90;;;;;;5071747;28;20037;-53
2022/09/08 09:13:45;;;;;;;15.13;12.60;;;17.50;99.90;;;;;;5071318;28;20037;-53
2022/09/08 09:16:33;;;;;;;15.35;13.07;;;17.50;99.90;;;;;;5080205;28;20538;-54
2022/09/08 09:19:27;;;;;;;16.27;13.40;;;17.50;99.90;;;;;;5091969;28;20033;-55
2022/09/08 09:22:22;;;;;;;14.38;12.88;;;17.60;99.90;;;;;;5077940;28;20047;-55
2022/09/08 09:25:17;;;;;;;12.20;10.48;;;17.60;99.90;;;;;;5094365;28;20035;-55
2022/09/08 09:28:03;;;;;;;10.23;9.30;;;17.60;99.90;;;;;;5093190;28;20393;-52
2022/09/08 09:31:03;;;;;;;9.40;8.57;;;17.60;99.90;;;;;;5091091;28;20152;-56
2022/09/08 09:33:48;;;;;;;7.80;6.95;;;17.60;99.90;;;;;;5091245;28;20151;-53
2022/09/08 09:36:25;;;;;;;10.18;7.55;;;17.50;99.90;;;;;;5091412;28;20114;-53
2022/09/08 09:39:19;;;;;;;8.10;7.40;;;17.50;99.90;;;;;;5082350;28;20033;-53
2022/09/08 09:41:55;;;;;;;8.23;7.43;;;17.50;99.90;;;;;;5088889;28;20051;-53
2022/09/08 09:44:40;;;;;;;9.98;7.05;;;17.40;99.90;;;;;;5092187;28;20040;-53
2022/09/08 09:47:39;;;;;;;8.07;6.50;;;17.40;99.90;;;;;;5093570;28;20097;-53
2022/09/08 09:50:32;;;;;;;6.80;6.15;;;17.40;99.90;;;;;;5088535;28;20341;-52
2022/09/08 09:53:27;;;;;;;6.95;4.32;;;17.40;99.90;;;;;;5099023;28;20046;-52
2022/09/08 09:56:30;;;;;;;6.15;5.10;;;17.30;99.90;;;;;;5111496;28;20051;-52
2022/09/08 09:59:02;;;;;;;5.88;5.35;;;17.30;99.90;;;;;;5091458;28;20048;-52
2022/09/08 10:01:54;;;;;;;3.60;2.78;;;17.30;99.90;;;;;;5078973;28;20067;-52
2022/09/08 10:04:39;;;;;;;4.70;2.88;;;17.30;99.90;;;;;;5082561;28;20035;-51
2022/09/08 10:07:10;;;;;;;5.30;3.00;;;17.20;99.90;;;;;;5104877;28;20071;-52
2022/09/08 10:09:59;;;;;;;3.90;2.63;;;17.20;99.90;;;;;;5086827;28;20032;-52
2022/09/08 10:12:58;;;;;;;10.48;3.33;;;17.20;99.90;;;;;;5073874;28;20086;-52
2022/09/08 10:15:36;;;;;;;5.93;4.55;;;17.20;99.90;;;;;;5070463;28;20408;-51
2022/09/08 10:18:29;;;;;;;5.90;4.47;;;17.20;99.90;;;;;;5084027;28;20044;-52
2022/09/08 10:21:02;;;;;;;5.35;3.85;;;17.10;99.90;;;;;;5095657;28;20047;-52
2022/09/08 10:23:56;;;;;;;4.38;3.05;;;17.10;99.90;;;;;;5090002;28;20040;-53
2022/09/08 10:27:01;;;;;;;4.22;3.13;;;17.10;99.90;;;;;;5108204;28;20039;-52
2022/09/08 10:29:36;;;;;;;4.05;2.85;;;17.00;99.90;;;;;;5095644;28;20047;-53
2022/09/08 10:32:24;;;;;;;6.13;3.38;;;17.00;99.90;;;;;;5093438;28;20052;-53
2022/09/08 10:35:19;;;;;;;3.58;3.25;;;17.00;99.90;;;;;;5072367;28;20389;-52
2022/09/08 10:38:19;;;;;;;3.92;2.90;;;17.00;99.90;;;;;;5051134;28;20090;-54
2022/09/08 10:40:56;;;;;;;4.55;3.53;;;16.90;99.90;;;;;;5071235;28;20043;-52
2022/09/08 10:43:37;;;;;;;3.53;3.22;;;17.00;99.90;;;;;;5075353;28;20089;-51
2022/09/08 10:46:50;;;;;;;6.20;3.90;;;17.00;99.90;;;;;;5069871;28;20051;-52
2022/09/08 10:49:18;;;;;;;4.40;3.72;;;16.90;99.90;;;;;;5051487;28;20523;-52
2022/09/08 10:51:56;;;;;;;3.67;3.40;;;17.00;99.90;;;;;;5090373;28;20047;-52
2022/09/08 10:55:27;;;;;;;4.47;3.85;;;16.90;99.90;;;;;;5090111;28;20569;-52
2022/09/08 10:58:27;;;;;;;7.20;3.83;;;17.00;99.90;;;;;;5038501;28;20060;-52
2022/09/08 11:01:27;;;;;;;7.60;4.97;;;17.00;99.90;;;;;;5089784;28;20044;-52
2022/09/08 11:03:58;;;;;;;5.82;4.95;;;17.10;99.90;;;;;;5090615;28;20028;-52
2022/09/08 11:06:53;;;;;;;4.88;4.55;;;17.20;99.90;;;;;;5085964;28;20033;-51
2022/09/08 11:09:35;;;;;;;4.85;4.45;;;17.20;99.90;;;;;;5073278;28;20786;-55
2022/09/08 11:12:15;;;;;;;4.72;4.30;;;17.20;99.90;;;;;;5089095;28;20050;-52
2022/09/08 11:14:41;;;;;;;4.30;4.07;;;17.30;99.90;;;;;;5068114;28;20045;-52
2022/09/08 11:17:23;;;;;;;5.13;4.63;;;17.30;99.90;;;;;;5088411;28;20040;-53
2022/09/08 11:20:09;;;;;;;4.28;3.88;;;17.30;99.90;;;;;;5085639;28;20032;-52
2022/09/08 11:22:42;;;;;;;4.70;3.55;;;17.30;99.90;;;;;;5103860;28;20062;-55
2022/09/08 11:25:15;;;;;;;4.63;3.10;;;17.40;99.90;;;;;;5092626;28;20404;-52
2022/09/08 11:28:04;;;;;;;5.80;3.92;;;17.40;99.90;;;;;;5093805;28;20040;-54
2022/09/08 11:30:43;;;;;;;5.55;4.07;;;17.40;99.90;;;;;;5082900;28;20067;-51
2022/09/08 11:33:32;;;;;;;5.28;4.10;;;17.40;99.90;;;;;;5084628;28;20044;-51
2022/09/08 11:36:40;;;;;;;6.38;4.43;;;17.50;99.90;;;;;;5067497;28;20069;-52
2022/09/08 11:39:08;;;;;;;;;;;17.50;99.90;;;;;;5090848;28;20412;-52
2022/09/08 11:42:03;;;;;;;4.88;4.43;;;17.50;99.90;;;;;;5113365;28;20006;-52
2022/09/08 11:44:39;;;;;;;5.15;4.75;;;17.60;99.90;;;;;;5098924;28;20378;-52
2022/09/08 11:47:29;;;;;;;6.45;5.80;;;17.60;99.90;;;;;;5094568;28;20066;-52
2022/09/08 11:50:13;;;;;;;7.10;4.95;;;17.70;99.90;;;;;;5110062;28;20039;-53
2022/09/08 11:53:05;;;;;;;6.53;5.93;;;17.70;99.90;;;;;;5110710;28;20424;-53
2022/09/08 11:56:04;;;;;;;6.07;5.15;;;17.70;99.90;;;;;;5112073;28;20114;-54
2022/09/08 11:58:56;;;;;;;6.60;6.00;;;17.80;99.90;;;;;;5073374;28;20040;-52
2022/09/08 12:02:01;;;;;;;7.20;6.60;;;17.90;99.90;;;;;;5073481;28;20055;-52
2022/09/08 12:05:01;;;;;;;7.15;6.45;;;17.90;99.90;;;;;;5075433;28;20121;-53
2022/09/08 12:07:44;;;;;;;7.03;6.50;;;17.90;99.90;;;;;;5081102;28;20047;-52
2022/09/08 12:10:34;;;;;;;8.68;7.97;;;18.00;99.90;;;;;;5093066;28;20079;-54
2022/09/08 12:13:15;;;;;;;8.88;8.15;;;18.00;99.90;;;;;;5095247;28;20126;-55
2022/09/08 12:15:50;;;;;;;8.93;7.85;;;18.10;99.90;;;;;;5084454;28;20072;-53
2022/09/08 12:18:28;;;;;;;9.65;8.75;;;18.10;99.90;;;;;;5093118;28;20079;-54
2022/09/08 12:20:53;;;;;;;10.77;9.00;;;18.10;99.90;;;;;;5072650;28;20041;-53
2022/09/08 12:23:28;;;;;;;9.93;8.90;;;18.10;99.90;;;;;;5072429;28;20500;-52
2022/09/08 12:26:06;;;;;;;11.32;10.02;;;18.10;99.90;;;;;;5110834;28;20042;-56
2022/09/08 12:28:56;;;;;;;10.98;9.98;;;18.20;99.90;;;;;;5112639;28;20043;-53
2022/09/08 12:31:59;;;;;;;12.00;10.80;;;18.30;99.90;;;;;;5070635;28;20079;-52
2022/09/08 12:34:52;;;;;;;11.50;10.40;;;18.30;99.90;;;;;;5081863;28;20048;-53
2022/09/08 12:37:27;;;;;;;10.68;9.57;;;18.40;99.90;;;;;;5093264;28;20509;-55
2022/09/08 12:40:30;;;;;;;11.27;10.30;;;18.50;99.90;;;;;;5100533;28;20040;-55
2022/09/08 12:43:23;;;;;;;11.10;10.10;;;18.50;99.90;;;;;;5099956;28;20139;-56
2022/09/08 12:46:24;;;;;;;10.95;9.88;;;18.50;99.90;;;;;;5101542;28;20476;-58
2022/09/08 12:49:03;;;;;;;11.13;10.23;;;18.50;99.90;;;;;;5095032;28;20047;-59
2022/09/08 12:51:34;;;;;;;12.02;10.45;;;18.60;99.90;;;;;;5106360;28;20420;-58
2022/09/08 12:54:28;;;;;;;28.00;11.93;;;18.60;99.90;;;;;;5101175;28;20040;-60
2022/09/08 12:57:18;;;;;;;12.10;10.90;;;18.70;99.90;;;;;;5092420;28;20044;-60
2022/09/08 12:59:48;;;;;;;10.93;9.82;;;18.80;99.90;;;;;;5071820;28;20044;-58
2022/09/08 13:02:47;;;;;;;12.27;11.07;;;18.90;99.90;;;;;;5077193;28;20114;-56
2022/09/08 13:05:45;;;;;;;10.80;9.75;;;18.90;99.90;;;;;;5110495;28;20040;-59
2022/09/08 13:08:30;;;;;;;13.95;9.38;;;18.90;99.90;;;;;;5110812;28;20055;-61
2022/09/08 13:11:12;;;;;;;14.05;10.55;;;19.00;99.90;;;;;;5112494;28;20458;-60
2022/09/08 13:13:41;;;;;;;26.38;11.40;;;19.00;99.90;;;;;;5108619;28;20039;-61
2022/09/08 13:16:07;;;;;;;9.93;9.13;;;19.00;99.90;;;;;;5097911;28;20569;-56
2022/09/08 13:18:54;;;;;;;14.95;10.90;;;19.00;99.90;;;;;;5091618;28;20254;-59
2022/09/08 13:21:23;;;;;;;;;;;19.10;99.90;;;;;;5092422;28;20477;-57